createdAt,value
2022-09-27T00:01:15.181Z,8.12
2022-09-27T00:03:43.522Z,8.10
2022-09-27T00:06:14.497Z,8.12
2022-09-27T00:08:43.456Z,8.13
2022-09-27T00:11:29.038Z,8.13
2022-09-27T00:13:59.127Z,8.14
2022-09-27T00:16:30.583Z,8.14
2022-09-27T00:19:04.566Z,8.15
2022-09-27T00:21:33.242Z,8.14
2022-09-27T00:24:01.956Z,8.13
2022-09-27T00:26:30.435Z,8.14
2022-09-27T00:28:58.618Z,8.15
2022-09-27T00:31:30.037Z,8.13
2022-09-27T00:34:01.337Z,8.14
2022-09-27T00:36:30.258Z,8.12
2022-09-27T00:39:00.332Z,8.14
2022-09-27T00:41:32.464Z,8.13
2022-09-27T00:44:22.926Z,8.11
2022-09-27T00:47:03.440Z,8.09
2022-09-27T00:49:37.451Z,8.08
2022-09-27T00:52:13.922Z,8.07
2022-09-27T00:54:45.833Z,8.08
2022-09-27T00:57:13.965Z,8.08
2022-09-27T00:59:48.498Z,8.08
2022-09-27T01:02:17.536Z,8.09
2022-09-27T01:04:47.732Z,8.09
2022-09-27T01:07:15.936Z,8.11
2022-09-27T01:09:44.206Z,8.13
2022-09-27T01:12:33.560Z,8.17
2022-09-27T01:15:21.922Z,8.18
2022-09-27T01:17:56.402Z,8.20
2022-09-27T01:21:05.833Z,8.22
2022-09-27T01:24:15.320Z,8.24
2022-09-27T01:27:00.927Z,8.28
2022-09-27T01:29:38.329Z,8.30
2022-09-27T01:32:28.007Z,8.31
2022-09-27T01:35:18.962Z,8.32
2022-09-27T01:38:02.267Z,8.33
2022-09-27T01:41:00.433Z,8.35
2022-09-27T01:43:49.018Z,8.35
2022-09-27T01:46:28.463Z,8.37
2022-09-27T01:48:59.398Z,8.38
2022-09-27T01:51:38.495Z,8.39
2022-09-27T03:49:52.362Z,8.82
2022-09-27T03:50:43.615Z,8.80
2022-09-27T03:58:53.911Z,8.85
2022-09-27T04:06:18.393Z,8.89
2022-09-27T04:16:23.862Z,8.88
2022-09-27T04:47:51.288Z,8.74
2022-09-27T06:02:57.644Z,9.14
2022-09-27T06:13:37.865Z,9.28
2022-09-27T06:22:10.706Z,9.46
2022-09-27T06:28:05.982Z,9.53
2022-09-27T06:54:17.934Z,9.58
2022-09-27T06:54:20.266Z,9.53
2022-09-27T06:56:50.799Z,9.61
2022-09-27T06:59:37.592Z,9.65
2022-09-27T07:10:35.078Z,9.80
2022-09-27T07:13:07.488Z,9.81
2022-09-27T07:15:41.319Z,9.83
2022-09-27T07:18:08.927Z,9.87
2022-09-27T07:20:39.480Z,9.92
2022-09-27T07:23:14.628Z,9.96
2022-09-27T07:25:42.301Z,9.99
2022-09-27T07:28:21.562Z,10.04
2022-09-27T07:30:49.432Z,10.10
2022-09-27T07:33:19.351Z,10.18
2022-09-27T07:35:46.367Z,10.25
2022-09-27T07:38:13.533Z,10.28
2022-09-27T07:40:41.165Z,10.31
2022-09-27T07:43:10.682Z,10.32
2022-09-27T07:45:38.480Z,10.35
2022-09-27T07:48:13.684Z,10.37
2022-09-27T07:50:48.212Z,10.37
2022-09-27T07:53:15.917Z,10.33
2022-09-27T07:55:43.770Z,10.28
2022-09-27T07:58:11.708Z,10.28
2022-09-27T08:00:40.642Z,10.27
2022-09-27T08:03:16.323Z,10.26
2022-09-27T08:05:47.769Z,10.27
2022-09-27T08:08:21.091Z,10.26
2022-09-27T08:10:48.359Z,10.22
2022-09-27T08:13:19.627Z,10.19
2022-09-27T08:15:46.623Z,10.18
2022-09-27T08:18:13.868Z,10.18
2022-09-27T08:20:40.523Z,10.18
2022-09-27T08:23:07.801Z,10.20
2022-09-27T08:25:35.875Z,10.24
2022-09-27T08:28:04.409Z,10.26
2022-09-27T08:30:32.128Z,10.28
2022-09-27T08:33:03.596Z,10.33
2022-09-27T08:35:33.316Z,10.39
2022-09-27T08:38:05.409Z,10.47
2022-09-27T08:40:56.156Z,10.55
2022-09-27T08:43:41.830Z,10.59
2022-09-27T08:46:14.116Z,10.57
2022-09-27T08:48:55.418Z,10.53
2022-09-27T08:51:30.022Z,10.54
2022-09-27T08:54:11.152Z,10.54
2022-09-27T08:56:41.358Z,10.54
2022-09-27T08:59:14.419Z,10.54
2022-09-27T09:01:44.460Z,10.50
2022-09-27T09:04:19.803Z,10.44
2022-09-27T09:07:06.463Z,10.41
2022-09-27T09:09:58.311Z,10.36
2022-09-27T09:13:00.044Z,10.36
2022-09-27T09:15:58.018Z,10.39
2022-09-27T09:19:00.865Z,10.40
2022-09-27T09:21:52.562Z,10.41
2022-09-27T09:24:47.098Z,10.41
2022-09-27T09:27:24.444Z,10.47
2022-09-27T09:30:21.551Z,10.48
2022-09-27T09:33:27.127Z,10.48
2022-09-27T09:36:42.518Z,10.49
2022-09-27T09:39:28.092Z,10.59
2022-09-27T09:42:09.217Z,10.64
2022-09-27T09:44:56.039Z,10.68
2022-09-27T09:47:32.752Z,10.75
2022-09-27T09:50:05.363Z,10.88
2022-09-27T09:52:42.076Z,10.92
2022-09-27T09:55:20.614Z,10.95
2022-09-27T09:58:21.993Z,10.93
2022-09-27T10:01:08.767Z,10.84
2022-09-27T10:03:47.863Z,10.75
2022-09-27T10:06:16.607Z,10.72
2022-09-27T10:08:47.132Z,10.67
2022-09-27T10:11:38.990Z,10.64
2022-09-27T10:14:11.848Z,10.66
2022-09-27T10:16:44.339Z,10.67
2022-09-27T10:19:13.533Z,10.65
2022-09-27T10:21:52.609Z,10.64
2022-09-27T10:24:19.780Z,10.66
2022-09-27T10:26:52.034Z,10.68
2022-09-27T10:30:21.069Z,10.70
2022-09-27T10:33:04.048Z,10.74
2022-09-27T10:36:00.536Z,10.84
2022-09-27T10:38:36.343Z,10.91
2022-09-27T10:41:36.984Z,11.00
2022-09-27T10:44:36.396Z,11.11
2022-09-27T10:47:09.753Z,11.32
2022-09-27T10:49:41.518Z,11.51
2022-09-27T10:52:20.239Z,11.67
2022-09-27T10:55:14.273Z,11.77
2022-09-27T10:57:55.398Z,11.85
2022-09-27T11:00:34.663Z,11.86
2022-09-27T11:03:25.859Z,11.90
2022-09-27T11:05:54.229Z,12.00
2022-09-27T11:08:31.485Z,12.08
2022-09-27T11:11:25.888Z,12.04
2022-09-27T11:14:19.536Z,12.09
2022-09-27T11:17:40.080Z,12.22
2022-09-27T11:20:40.622Z,12.37
2022-09-27T11:24:17.232Z,12.42
2022-09-27T11:26:52.974Z,12.48
2022-09-27T11:29:55.989Z,12.57
2022-09-27T11:32:37.124Z,12.61
2022-09-27T11:35:49.399Z,12.64
2022-09-27T11:38:48.001Z,12.62
2022-09-27T11:41:22.303Z,12.59
2022-09-27T11:44:17.814Z,12.50
2022-09-27T11:47:22.270Z,12.47
2022-09-27T11:50:36.691Z,12.45
2022-09-27T11:53:22.303Z,12.48
2022-09-27T11:56:31.668Z,12.57
2022-09-27T11:59:32.442Z,12.73
2022-09-27T12:02:14.346Z,12.86
2022-09-27T12:05:07.776Z,12.86
2022-09-27T12:08:19.641Z,12.81
2022-09-27T12:10:54.560Z,12.73
2022-09-27T12:13:38.045Z,12.72
2022-09-27T12:16:05.794Z,12.71
2022-09-27T12:18:40.325Z,12.63
2022-09-27T12:21:09.851Z,12.53
2022-09-27T12:23:50.491Z,12.47
2022-09-27T12:26:23.738Z,12.48
2022-09-27T12:28:58.622Z,12.42
2022-09-27T12:31:47.645Z,12.40
2022-09-27T12:34:37.344Z,12.40
2022-09-27T12:37:45.377Z,12.43
2022-09-27T12:40:21.713Z,12.50
2022-09-27T12:43:08.571Z,12.51
2022-09-27T12:45:52.785Z,12.52
2022-09-27T12:48:25.595Z,12.55
2022-09-27T12:51:15.197Z,12.54
2022-09-27T12:54:10.263Z,12.48
2022-09-27T12:57:03.757Z,12.49
2022-09-27T12:59:52.435Z,12.46
2022-09-27T13:03:14.295Z,12.41
2022-09-27T13:05:45.461Z,12.44
2022-09-27T13:08:50.794Z,12.51
2022-09-27T13:11:46.878Z,12.64
2022-09-27T13:14:54.572Z,12.69
2022-09-27T13:17:53.089Z,12.70
2022-09-27T13:20:42.024Z,12.68
2022-09-27T13:23:16.001Z,12.66
2022-09-27T13:25:56.283Z,12.67
2022-09-27T13:28:32.629Z,12.68
2022-09-27T13:31:22.370Z,12.64
2022-09-27T13:33:51.904Z,12.57
2022-09-27T13:36:27.801Z,12.52
2022-09-27T13:39:09.981Z,12.44
2022-09-27T13:42:23.408Z,12.26
2022-09-27T13:45:05.240Z,11.29
2022-09-27T13:47:37.750Z,10.64
2022-09-27T13:50:28.201Z,10.31
2022-09-27T13:53:13.081Z,10.07
2022-09-27T13:56:09.764Z,9.91
2022-09-27T13:58:52.401Z,9.84
2022-09-27T14:01:30.541Z,9.76
2022-09-27T14:04:27.243Z,9.74
2022-09-27T14:07:04.089Z,9.77
2022-09-27T14:09:35.116Z,9.79
2022-09-27T14:12:15.960Z,9.81
2022-09-27T14:14:46.842Z,9.86
2022-09-27T14:17:13.904Z,9.93
2022-09-27T14:19:43.963Z,9.98
2022-09-27T14:22:22.799Z,9.98
2022-09-27T14:24:51.692Z,10.00
2022-09-27T14:27:22.819Z,9.97
2022-09-27T14:30:01.308Z,9.96
2022-09-27T14:32:49.707Z,9.92
2022-09-27T14:35:55.506Z,9.91
2022-09-27T14:38:39.598Z,9.95
2022-09-27T14:41:16.055Z,9.97
2022-09-27T14:43:50.131Z,10.02
2022-09-27T14:46:28.682Z,10.11
2022-09-27T14:48:56.114Z,10.31
2022-09-27T14:51:29.784Z,10.40
2022-09-27T14:54:00.758Z,10.42
2022-09-27T14:56:38.021Z,10.39
2022-09-27T14:59:15.782Z,10.37
2022-09-27T15:02:10.514Z,10.33
2022-09-27T15:04:43.598Z,10.32
2022-09-27T15:07:16.653Z,10.30
2022-09-27T15:10:03.916Z,10.30
2022-09-27T15:12:31.708Z,10.26
2022-09-27T15:14:59.182Z,10.23
2022-09-27T15:17:26.103Z,10.20
2022-09-27T15:20:03.244Z,10.16
2022-09-27T15:22:46.873Z,10.13
2022-09-27T15:25:32.114Z,10.11
2022-09-27T15:28:05.927Z,10.12
2022-09-27T15:30:41.975Z,10.11
2022-09-27T15:33:22.157Z,10.06
2022-09-27T15:35:52.059Z,10.03
2022-09-27T15:38:27.120Z,10.00
2022-09-27T15:40:54.336Z,9.96
2022-09-27T15:44:11.777Z,9.95
2022-09-27T15:46:42.405Z,9.92
2022-09-27T15:49:27.253Z,9.90
2022-09-27T15:51:56.717Z,9.88
2022-09-27T15:54:29.826Z,9.87
2022-09-27T15:57:03.919Z,9.89
2022-09-27T15:59:34.482Z,9.86
2022-09-27T16:02:15.452Z,9.88
2022-09-27T16:04:52.825Z,9.85
2022-09-27T16:07:19.626Z,9.86
2022-09-27T16:09:48.977Z,9.86
2022-09-27T16:12:18.940Z,9.86
2022-09-27T16:14:45.802Z,9.89
2022-09-27T16:17:16.320Z,9.87
2022-09-27T16:19:45.827Z,9.84
2022-09-27T16:22:13.101Z,9.80
2022-09-27T16:24:40.143Z,9.73
2022-09-27T16:27:07.069Z,9.69
2022-09-27T16:29:34.463Z,9.65
2022-09-27T16:32:06.522Z,9.61
2022-09-27T16:34:33.375Z,9.57
2022-09-27T16:37:04.683Z,9.56
2022-09-27T16:39:40.889Z,9.51
2022-09-27T16:42:09.062Z,9.45
2022-09-27T16:44:36.310Z,9.44
2022-09-27T16:47:09.639Z,9.42
2022-09-27T16:50:03.261Z,9.38
2022-09-27T16:52:43.268Z,9.36
2022-09-27T16:55:10.609Z,9.32
2022-09-27T16:57:58.828Z,9.29
2022-09-27T17:00:27.444Z,9.26
2022-09-27T17:02:55.297Z,9.23
2022-09-27T17:05:22.879Z,9.22
2022-09-27T17:07:54.139Z,9.18
2022-09-27T17:10:22.623Z,9.16
2022-09-27T17:12:50.768Z,9.15
2022-09-27T17:15:18.414Z,9.16
2022-09-27T17:17:49.248Z,9.14
2022-09-27T17:20:17.077Z,9.12
2022-09-27T17:22:44.244Z,9.12
2022-09-27T17:25:27.113Z,9.10
2022-09-27T17:28:03.833Z,9.06
2022-09-27T17:30:31.407Z,9.04
2022-09-27T17:32:58.599Z,9.01
2022-09-27T17:35:25.763Z,8.98
2022-09-27T17:37:52.973Z,8.95
2022-09-27T17:40:29.381Z,8.92
2022-09-27T17:43:05.635Z,8.87
2022-09-27T17:45:34.202Z,8.81
2022-09-27T17:48:20.080Z,8.76
2022-09-27T17:51:03.439Z,8.71
2022-09-27T17:53:34.081Z,8.66
2022-09-27T17:56:09.462Z,8.63
2022-09-27T17:58:36.568Z,8.61
2022-09-27T18:01:07.437Z,8.59
2022-09-27T18:03:35.617Z,8.56
2022-09-27T18:06:25.551Z,8.51
2022-09-27T18:08:54.485Z,8.47
2022-09-27T18:11:29.623Z,8.44
2022-09-27T18:14:05.168Z,8.41
2022-09-27T18:16:38.905Z,8.37
2022-09-27T18:19:13.522Z,8.33
2022-09-27T18:21:40.862Z,8.27
2022-09-27T18:24:22.186Z,8.24
2022-09-27T18:26:55.404Z,8.20
2022-09-27T18:29:23.124Z,8.16
2022-09-27T18:31:56.297Z,8.14
2022-09-27T18:34:28.835Z,8.11
2022-09-27T18:37:01.460Z,8.10
2022-09-27T18:39:47.812Z,8.06
2022-09-27T18:42:14.882Z,8.00
2022-09-27T18:44:42.455Z,7.96
2022-09-27T18:47:09.881Z,7.92
2022-09-27T18:49:36.944Z,7.89
2022-09-27T18:52:04.174Z,7.86
2022-09-27T18:54:31.338Z,7.85
2022-09-27T18:56:59.456Z,7.85
2022-09-27T18:59:30.398Z,7.84
2022-09-27T19:01:57.643Z,7.85
2022-09-27T19:04:39.477Z,7.86
2022-09-27T19:07:07.866Z,7.87
2022-09-27T19:09:37.655Z,7.85
2022-09-27T19:12:04.815Z,7.85
2022-09-27T19:14:32.610Z,7.84
2022-09-27T19:17:11.114Z,7.82
2022-09-27T19:19:40.435Z,7.81
2022-09-27T19:22:08.679Z,7.81
2022-09-27T19:24:35.584Z,7.80
2022-09-27T19:27:02.862Z,7.80
2022-09-27T19:29:32.768Z,7.80
2022-09-27T19:32:08.620Z,7.80
2022-09-27T19:34:46.122Z,7.78
2022-09-27T19:37:13.130Z,7.77
2022-09-27T19:39:45.164Z,7.77
2022-09-27T19:42:30.037Z,7.76
2022-09-27T19:44:57.285Z,7.73
2022-09-27T19:47:24.447Z,7.68
2022-09-27T19:50:00.546Z,7.65
2022-09-27T19:52:28.560Z,7.62
2022-09-27T19:55:07.968Z,7.58
2022-09-27T19:57:37.372Z,7.55
2022-09-27T20:00:04.641Z,7.56
2022-09-27T20:02:45.854Z,7.56
2022-09-27T20:05:20.531Z,7.55
2022-09-27T20:07:48.279Z,7.56
2022-09-27T20:10:15.250Z,7.59
2022-09-27T20:12:44.278Z,7.57
2022-09-27T20:15:11.024Z,7.53
2022-09-27T20:17:38.164Z,7.50
2022-09-27T20:20:05.890Z,7.46
2022-09-27T20:22:32.906Z,7.44
2022-09-27T20:25:00.295Z,7.42
2022-09-27T20:27:29.659Z,7.41
2022-09-27T20:29:56.615Z,7.40
2022-09-27T20:32:27.793Z,7.37
2022-09-27T20:34:55.977Z,7.33
2022-09-27T20:37:23.430Z,7.30
2022-09-27T20:39:53.958Z,7.28
2022-09-27T20:42:24.290Z,7.25
2022-09-27T20:44:54.308Z,7.21
2022-09-27T20:47:25.680Z,7.16
2022-09-27T20:49:52.671Z,7.13
2022-09-27T20:52:19.627Z,7.13
2022-09-27T20:54:46.619Z,7.11
2022-09-27T20:57:14.046Z,7.10
2022-09-27T20:59:40.751Z,7.10
2022-09-27T21:02:07.549Z,7.08
2022-09-27T21:04:36.781Z,7.07
2022-09-27T21:07:03.613Z,7.05
2022-09-27T21:09:38.061Z,7.04
2022-09-27T21:12:07.251Z,7.03
2022-09-27T21:14:34.086Z,7.01
2022-09-27T21:17:02.056Z,7.01
2022-09-27T21:19:29.160Z,6.98
2022-09-27T21:21:56.160Z,6.96
2022-09-27T21:24:22.902Z,6.92
2022-09-27T21:26:49.707Z,6.88
2022-09-27T21:29:16.939Z,6.86
2022-09-27T21:31:43.888Z,6.82
2022-09-27T21:34:11.314Z,6.81
2022-09-27T21:36:38.994Z,6.79
2022-09-27T21:39:08.212Z,6.78
2022-09-27T21:41:35.609Z,6.76
2022-09-27T21:44:03.924Z,6.73
2022-09-27T21:46:30.782Z,6.70
2022-09-27T21:48:59.502Z,6.66
2022-09-27T21:51:29.063Z,6.64
2022-09-27T21:54:02.731Z,6.63
2022-09-27T21:56:39.924Z,6.60
2022-09-27T21:59:10.832Z,6.60
2022-09-27T22:01:38.333Z,6.59
2022-09-27T22:04:08.656Z,6.59
2022-09-27T22:06:39.493Z,6.57
2022-09-27T22:09:08.691Z,6.55
2022-09-27T22:11:43.790Z,6.53
2022-09-27T22:14:11.857Z,6.51
2022-09-27T22:16:39.398Z,6.48
2022-09-27T22:19:06.426Z,6.44
2022-09-27T22:21:36.341Z,6.41
2022-09-27T22:24:07.975Z,6.40
2022-09-27T22:26:37.832Z,6.36
2022-09-27T22:29:05.960Z,6.34
2022-09-27T22:31:33.838Z,6.31
2022-09-27T22:34:04.570Z,6.30
2022-09-27T22:36:32.942Z,6.28
2022-09-27T22:39:00.685Z,6.26
2022-09-27T22:41:29.998Z,6.24
2022-09-27T22:43:57.470Z,6.20
2022-09-27T22:46:25.059Z,6.18
2022-09-27T22:48:51.969Z,6.17
2022-09-27T22:51:19.779Z,6.14
2022-09-27T22:53:46.727Z,6.12
2022-09-27T22:56:21.431Z,6.08
2022-09-27T22:58:57.186Z,6.05
2022-09-27T23:01:24.746Z,6.03
2022-09-27T23:03:53.556Z,6.01
2022-09-27T23:06:42.237Z,5.99
2022-09-27T23:09:10.148Z,5.98
2022-09-27T23:11:37.666Z,5.97
2022-09-27T23:14:05.650Z,5.96
2022-09-27T23:16:34.228Z,5.94
2022-09-27T23:19:02.045Z,5.92
2022-09-27T23:21:29.117Z,5.90
2022-09-27T23:23:59.139Z,5.89
2022-09-27T23:26:27.646Z,5.86
2022-09-27T23:28:57.256Z,5.83
2022-09-27T23:31:26.593Z,5.81
2022-09-27T23:33:53.959Z,5.79
2022-09-27T23:36:26.409Z,5.76
2022-09-27T23:38:57.169Z,5.74
2022-09-27T23:41:24.512Z,5.74
2022-09-27T23:43:54.435Z,5.73
2022-09-27T23:46:21.483Z,5.72
2022-09-27T23:48:48.563Z,5.70
2022-09-27T23:51:15.736Z,5.68
2022-09-27T23:53:43.945Z,5.66
2022-09-27T23:56:16.568Z,5.66
2022-09-27T23:58:45.431Z,5.65
